Orangevale, California
Current Conditions -  °F | °C
As of 6:55 AM on Monday 22 Dec 2014 (Local Time) from KMCC Reporting Station
Haze Haze  
Wind Chill: 54°   Ceiling: 100
Heat Index: 54°   Visibility: 3mi
Dew Point: 54°   Wind: 5mph
Humidity: 100%   Direction: 310°NW
Pressure: 30.27"   Gusts: NA
Location:  38.68°N, 121.22°W
Report Text: KMCC 221455Z AUTO 31004KT 3SM BR BKN001 OVC010 12/12 A3027 RMK AO2
Loading
Personal Weather Stations






























Interactive Weather Map New forecast layout! Learn more

10-Day Weather Forecast

Advertisements
Track Severe Weather on mobile